createdAt,value
2018-12-23T00:01:56.088Z,78.36
2018-12-23T00:04:27.144Z,78.09
2018-12-23T00:06:58.142Z,77.66
2018-12-23T00:09:27.241Z,78.20
2018-12-23T00:11:58.389Z,78.63
2018-12-23T00:14:29.263Z,78.56
2018-12-23T00:17:03.079Z,78.77
2018-12-23T00:19:34.569Z,78.61
2018-12-23T00:22:05.567Z,78.15
2018-12-23T00:24:38.887Z,78.44
2018-12-23T00:27:10.334Z,78.82
2018-12-23T00:29:41.279Z,78.48
2018-12-23T00:32:14.900Z,78.41
2018-12-23T00:34:46.475Z,78.72
2018-12-23T00:37:17.574Z,78.84
2018-12-23T00:39:48.423Z,78.86
2018-12-23T00:42:22.154Z,78.50
2018-12-23T00:44:53.686Z,79.06
2018-12-23T00:47:25.407Z,78.62
2018-12-23T00:49:56.402Z,78.59
2018-12-23T00:52:27.429Z,78.55
2018-12-23T00:54:58.402Z,78.77
2018-12-23T00:57:32.111Z,79.27
2018-12-23T01:00:04.941Z,78.65
2018-12-23T01:02:36.691Z,78.49
2018-12-23T01:05:07.994Z,78.80
2018-12-23T01:07:38.753Z,79.07
2018-12-23T01:10:09.863Z,78.74
2018-12-23T01:12:40.649Z,79.04
2018-12-23T01:15:11.915Z,78.90
2018-12-23T01:17:42.603Z,78.81
2018-12-23T01:20:14.036Z,79.32
2018-12-23T01:22:44.991Z,79.42
2018-12-23T01:25:16.128Z,78.85
2018-12-23T01:27:50.712Z,79.16
2018-12-23T01:30:21.943Z,79.47
2018-12-23T01:32:53.059Z,79.38
2018-12-23T01:35:26.485Z,79.70
2018-12-23T01:37:58.164Z,79.25
2018-12-23T01:40:29.896Z,79.46
2018-12-23T01:43:01.111Z,79.91
2018-12-23T01:45:34.861Z,79.09
2018-12-23T01:48:06.276Z,79.32
2018-12-23T01:50:37.088Z,79.40
2018-12-23T01:53:08.210Z,80.08
2018-12-23T01:55:41.636Z,79.37
2018-12-23T01:58:13.131Z,79.75
2018-12-23T02:00:44.171Z,79.64
2018-12-23T02:03:15.064Z,79.14
2018-12-23T02:05:46.381Z,79.25
2018-12-23T02:08:17.976Z,79.43
2018-12-23T02:10:49.124Z,80.01
2018-12-23T02:13:20.455Z,80.09
2018-12-23T02:15:51.387Z,80.12
2018-12-23T02:18:22.467Z,80.06
2018-12-23T02:20:53.494Z,79.75
2018-12-23T02:23:24.506Z,80.29
2018-12-23T02:25:55.496Z,79.94
2018-12-23T02:28:26.627Z,80.24
2018-12-23T02:30:57.652Z,80.27
2018-12-23T02:33:28.787Z,80.18
2018-12-23T02:36:00.507Z,79.96
2018-12-23T02:38:31.615Z,79.90
2018-12-23T02:41:02.791Z,80.38
2018-12-23T02:43:33.751Z,80.50
2018-12-23T02:46:07.103Z,79.92
2018-12-23T02:48:38.540Z,80.63
2018-12-23T02:51:09.683Z,80.54
2018-12-23T02:53:40.804Z,80.67
2018-12-23T02:56:11.839Z,80.53
2018-12-23T02:58:42.929Z,80.95
2018-12-23T03:01:14.161Z,80.69
2018-12-23T03:03:44.902Z,80.91
2018-12-23T03:06:16.370Z,80.56
2018-12-23T03:08:47.316Z,80.48
2018-12-23T03:11:18.046Z,80.53
2018-12-23T03:13:49.059Z,81.10
2018-12-23T03:16:20.361Z,80.67
2018-12-23T03:18:51.510Z,80.47
2018-12-23T03:21:25.149Z,81.28
2018-12-23T03:23:56.412Z,81.11
2018-12-23T03:26:28.242Z,81.21
2018-12-23T03:28:59.573Z,81.17
2018-12-23T03:36:35.176Z,81.08
2018-12-23T03:39:06.763Z,81.25
2018-12-23T03:41:40.952Z,81.15
2018-12-23T03:44:12.113Z,81.33
2018-12-23T03:46:43.162Z,81.18
2018-12-23T03:49:13.971Z,81.50
2018-12-23T03:51:45.441Z,82.14
2018-12-23T03:54:16.506Z,82.24
2018-12-23T03:56:48.304Z,81.33
2018-12-23T03:59:19.364Z,81.82
2018-12-23T04:01:50.495Z,81.78
2018-12-23T04:04:23.889Z,82.22
2018-12-23T04:06:55.537Z,81.50
2018-12-23T04:09:26.291Z,81.88
2018-12-23T04:11:57.232Z,81.54
2018-12-23T04:14:28.578Z,82.05
2018-12-23T04:16:59.512Z,81.68
2018-12-23T04:19:30.747Z,81.95
2018-12-23T04:22:01.467Z,81.96
2018-12-23T04:24:32.607Z,82.47
2018-12-23T04:27:03.784Z,82.42
2018-12-23T04:29:34.817Z,82.23
2018-12-23T04:32:06.330Z,82.37
2018-12-23T04:34:38.334Z,82.80
2018-12-23T04:37:09.840Z,82.66
2018-12-23T04:39:41.093Z,82.66
2018-12-23T04:42:11.903Z,82.34
2018-12-23T04:44:45.632Z,82.41
2018-12-23T04:47:16.979Z,82.70
2018-12-23T04:49:47.854Z,82.31
2018-12-23T04:52:17.124Z,82.30
2018-12-23T04:54:48.157Z,82.35
2018-12-23T04:57:19.206Z,82.33
2018-12-23T04:59:50.932Z,82.00
2018-12-23T05:02:22.219Z,82.06
2018-12-23T05:04:53.345Z,82.02
2018-12-23T05:07:26.863Z,81.81
2018-12-23T05:10:00.703Z,81.81
2018-12-23T05:12:32.231Z,82.02
2018-12-23T05:15:03.527Z,81.90
2018-12-23T05:17:35.161Z,82.24
2018-12-23T05:20:06.185Z,81.97
2018-12-23T05:22:37.159Z,81.85
2018-12-23T05:25:10.759Z,82.65
2018-12-23T05:27:44.667Z,81.83
2018-12-23T05:30:16.453Z,82.33
2018-12-23T05:32:48.206Z,81.99
2018-12-23T05:42:55.260Z,82.28
2018-12-23T05:45:26.163Z,82.25
2018-12-23T05:48:01.644Z,82.98
2018-12-23T05:50:33.321Z,82.12
2018-12-23T05:53:02.571Z,82.60
2018-12-23T05:55:32.253Z,82.16
2018-12-23T05:58:05.969Z,82.79
2018-12-23T06:00:37.501Z,82.89
2018-12-23T06:03:08.301Z,83.20
2018-12-23T06:05:39.180Z,83.32
2018-12-23T06:08:10.187Z,82.33
2018-12-23T06:10:41.003Z,82.80
2018-12-23T06:13:11.867Z,83.06
2018-12-23T06:15:42.883Z,82.73
2018-12-23T06:18:13.816Z,83.45
2018-12-23T06:20:44.747Z,83.00
2018-12-23T06:23:18.306Z,83.16
2018-12-23T06:25:49.751Z,82.67
2018-12-23T06:28:20.629Z,83.07
2018-12-23T06:30:51.785Z,82.68
2018-12-23T06:33:22.951Z,83.23
2018-12-23T06:35:53.944Z,82.72
2018-12-23T06:38:24.881Z,82.88
2018-12-23T06:40:56.012Z,82.79
2018-12-23T06:43:27.111Z,82.84
2018-12-23T06:45:58.194Z,82.77
2018-12-23T06:48:29.457Z,83.17
2018-12-23T06:51:00.756Z,83.34
2018-12-23T06:53:30.437Z,83.18
2018-12-23T06:56:01.482Z,83.52
2018-12-23T06:58:32.435Z,83.06
2018-12-23T07:01:03.431Z,83.08
2018-12-23T07:03:36.995Z,83.47
2018-12-23T07:06:09.039Z,83.14
2018-12-23T07:08:40.501Z,83.55
2018-12-23T07:11:11.519Z,83.62
2018-12-23T07:13:42.445Z,83.62
2018-12-23T07:16:13.473Z,82.79
2018-12-23T07:18:44.298Z,83.13
2018-12-23T07:21:17.920Z,83.33
2018-12-23T07:24:27.763Z,83.87
2018-12-23T07:26:55.459Z,83.92
2018-12-23T07:29:23.493Z,83.83
2018-12-23T07:31:51.654Z,83.34
2018-12-23T07:34:19.725Z,84.01
2018-12-23T07:36:49.682Z,83.99
2018-12-23T07:39:17.959Z,84.04
2018-12-23T07:41:46.181Z,84.45
2018-12-23T07:44:14.324Z,83.71
2018-12-23T07:46:42.379Z,84.09
2018-12-23T07:49:10.322Z,83.75
2018-12-23T07:51:38.621Z,83.69
2018-12-23T07:54:07.137Z,84.16
2018-12-23T07:56:35.276Z,83.39
2018-12-23T07:59:04.200Z,83.91
2018-12-23T08:01:32.506Z,84.03
2018-12-23T08:04:01.075Z,83.80
2018-12-23T08:06:29.102Z,83.64
2018-12-23T08:08:57.110Z,83.95
2018-12-23T08:11:25.990Z,83.44
2018-12-23T08:13:53.975Z,83.91
2018-12-23T08:16:22.442Z,83.86
2018-12-23T08:18:51.297Z,84.01
2018-12-23T08:21:19.825Z,83.65
2018-12-23T08:23:47.514Z,83.14
2018-12-23T08:26:16.192Z,83.07
2018-12-23T08:28:44.526Z,83.06
2018-12-23T08:31:12.559Z,82.95
2018-12-23T08:33:40.960Z,82.90
2018-12-23T08:36:09.224Z,83.52
2018-12-23T08:38:37.045Z,82.66
2018-12-23T08:41:05.356Z,82.78
2018-12-23T08:43:33.577Z,82.87
2018-12-23T08:46:01.378Z,82.40
2018-12-23T08:48:29.603Z,82.43
2018-12-23T08:50:57.858Z,82.23
2018-12-23T08:53:25.860Z,81.97
2018-12-23T08:55:53.923Z,82.70
2018-12-23T08:58:22.227Z,82.12
2018-12-23T09:00:50.041Z,82.14
2018-12-23T09:03:19.052Z,82.07
2018-12-23T09:05:47.271Z,82.44
2018-12-23T09:08:15.566Z,82.32
2018-12-23T09:10:43.638Z,82.29
2018-12-23T09:13:12.166Z,83.13
2018-12-23T09:15:40.451Z,83.22
2018-12-23T09:18:09.044Z,83.00
2018-12-23T09:20:36.779Z,82.74
2018-12-23T09:23:05.862Z,81.47
2018-12-23T09:25:34.141Z,81.42
2018-12-23T09:28:02.409Z,81.01
2018-12-23T09:30:30.963Z,81.08
2018-12-23T09:32:58.914Z,81.87
2018-12-23T09:35:27.145Z,81.61
2018-12-23T09:38:01.376Z,81.69
2018-12-23T09:40:25.754Z,82.25
2018-12-23T09:42:54.263Z,82.14
2018-12-23T09:45:22.299Z,81.67
2018-12-23T09:47:50.385Z,81.54
2018-12-23T09:50:19.007Z,81.52
2018-12-23T09:52:47.202Z,79.73
2018-12-23T09:55:16.118Z,79.89
2018-12-23T09:57:44.133Z,81.22
2018-12-23T10:00:12.313Z,80.56
2018-12-23T10:02:40.358Z,79.15
2018-12-23T10:05:08.366Z,78.88
2018-12-23T10:07:36.241Z,78.69
2018-12-23T10:10:05.194Z,80.31
2018-12-23T10:12:33.458Z,78.92
2018-12-23T10:15:01.903Z,78.93
2018-12-23T10:17:29.858Z,79.24
2018-12-23T10:19:57.537Z,78.99
2018-12-23T10:22:25.833Z,78.31
2018-12-23T10:24:53.887Z,78.45
2018-12-23T10:27:22.544Z,77.60
2018-12-23T10:29:50.614Z,79.19
2018-12-23T10:32:19.051Z,79.71
2018-12-23T10:34:50.350Z,77.92
2018-12-23T10:37:18.691Z,77.85
2018-12-23T10:39:47.046Z,77.14
2018-12-23T10:42:15.527Z,77.44
2018-12-23T10:44:43.808Z,78.21
2018-12-23T10:47:13.041Z,77.85
2018-12-23T10:49:40.687Z,77.59
2018-12-23T10:52:09.498Z,77.12
2018-12-23T10:54:37.800Z,78.67
2018-12-23T10:57:05.973Z,77.83
2018-12-23T10:59:34.073Z,77.19
2018-12-23T11:02:01.883Z,78.80
2018-12-23T11:04:30.165Z,76.95
2018-12-23T11:06:58.755Z,77.49
2018-12-23T11:09:28.325Z,76.63
2018-12-23T11:11:57.267Z,77.61
2018-12-23T11:14:25.888Z,76.84
2018-12-23T11:16:56.485Z,78.28
2018-12-23T11:19:25.135Z,77.36
2018-12-23T11:21:53.571Z,77.23
2018-12-23T11:24:21.800Z,77.41
2018-12-23T11:26:50.126Z,76.55
2018-12-23T11:29:18.458Z,76.74
2018-12-23T11:31:46.167Z,76.98
2018-12-23T11:34:14.542Z,76.41
2018-12-23T11:36:43.362Z,76.28
2018-12-23T11:39:11.896Z,76.44
2018-12-23T11:41:40.736Z,76.37
2018-12-23T11:44:09.053Z,76.28
2018-12-23T11:46:36.974Z,76.79
2018-12-23T11:49:04.813Z,75.79
2018-12-23T11:51:32.948Z,75.91
2018-12-23T11:54:00.955Z,77.17
2018-12-23T11:56:29.277Z,76.02
2018-12-23T11:59:00.347Z,76.85
2018-12-23T12:01:28.090Z,76.04
2018-12-23T12:03:56.429Z,76.83
2018-12-23T12:06:24.485Z,76.26
2018-12-23T12:08:52.167Z,76.32
2018-12-23T12:11:20.235Z,76.02
2018-12-23T12:13:48.022Z,76.37
2018-12-23T12:16:15.990Z,76.69
2018-12-23T12:18:43.684Z,76.27
2018-12-23T12:21:12.920Z,76.05
2018-12-23T12:23:41.609Z,77.24
2018-12-23T12:26:10.625Z,77.61
2018-12-23T12:28:38.779Z,76.39
2018-12-23T12:31:06.789Z,76.22
2018-12-23T12:33:35.054Z,77.50
2018-12-23T12:36:03.241Z,76.17
2018-12-23T12:38:31.831Z,75.89
2018-12-23T12:40:59.974Z,76.33
2018-12-23T12:43:27.691Z,76.63
2018-12-23T12:46:00.557Z,76.29
2018-12-23T12:48:25.175Z,76.70
2018-12-23T12:50:53.757Z,76.88
2018-12-23T12:53:21.599Z,76.92
2018-12-23T12:55:49.834Z,77.59
2018-12-23T12:58:18.396Z,78.46
2018-12-23T13:00:46.546Z,78.63
2018-12-23T13:03:14.564Z,78.78
2018-12-23T13:05:42.839Z,79.07
2018-12-23T13:08:10.539Z,79.04
2018-12-23T13:10:39.376Z,79.21
2018-12-23T13:13:07.622Z,80.05
2018-12-23T13:15:36.027Z,80.47
2018-12-23T13:18:04.341Z,81.36
2018-12-23T13:20:32.359Z,80.62
2018-12-23T13:23:00.905Z,80.77
2018-12-23T13:25:28.859Z,81.51
2018-12-23T13:27:56.903Z,82.31
2018-12-23T13:30:25.500Z,82.56
2018-12-23T13:32:54.081Z,82.27
2018-12-23T13:35:22.142Z,83.67
2018-12-23T13:37:50.255Z,83.00
2018-12-23T13:41:32.819Z,82.88
2018-12-23T13:45:02.345Z,83.60
2018-12-23T13:48:53.027Z,82.60
2018-12-23T13:52:21.049Z,83.99
2018-12-23T13:55:29.647Z,83.77
2018-12-23T13:58:39.593Z,83.35
2018-12-23T14:01:55.896Z,84.01
2018-12-23T14:05:10.803Z,84.51
2018-12-23T14:08:52.326Z,84.19
2018-12-23T14:11:53.569Z,84.34
2018-12-23T14:14:22.155Z,84.47
2018-12-23T14:16:51.038Z,84.79
2018-12-23T14:19:19.455Z,85.18
2018-12-23T14:21:47.890Z,84.17
2018-12-23T14:24:16.326Z,85.43
2018-12-23T14:26:45.083Z,85.16
2018-12-23T14:29:13.546Z,84.70
2018-12-23T14:31:41.379Z,85.67
2018-12-23T14:34:09.810Z,85.12
2018-12-23T14:36:37.621Z,85.95
2018-12-23T14:39:08.221Z,85.19
2018-12-23T14:41:36.369Z,85.70
2018-12-23T14:44:04.191Z,85.21
2018-12-23T14:46:32.372Z,84.51
2018-12-23T14:49:00.319Z,85.18
2018-12-23T14:51:28.354Z,84.47
2018-12-23T14:53:56.830Z,84.78
2018-12-23T14:56:25.071Z,85.65
2018-12-23T14:58:53.499Z,85.37
2018-12-23T15:01:21.783Z,86.21
2018-12-23T15:03:49.467Z,86.14
2018-12-23T15:06:17.732Z,86.17
2018-12-23T15:08:45.973Z,86.43
2018-12-23T15:11:14.809Z,85.98
2018-12-23T15:13:42.795Z,85.67
2018-12-23T15:16:11.423Z,85.85
2018-12-23T15:18:42.360Z,86.20
2018-12-23T15:21:10.464Z,85.75
2018-12-23T15:23:38.941Z,85.99
2018-12-23T15:26:07.715Z,86.62
2018-12-23T15:28:35.978Z,86.04
2018-12-23T15:31:04.136Z,86.47
2018-12-23T15:33:32.528Z,85.73
2018-12-23T15:36:01.411Z,86.39
2018-12-23T15:38:30.074Z,86.14
2018-12-23T15:40:58.031Z,86.39
2018-12-23T15:43:26.480Z,86.74
2018-12-23T15:45:54.649Z,86.24
2018-12-23T15:48:22.613Z,85.92
2018-12-23T15:50:50.586Z,85.94
2018-12-23T15:53:18.416Z,87.07
2018-12-23T15:55:46.914Z,86.44
2018-12-23T15:58:15.106Z,85.54
2018-12-23T16:00:42.885Z,86.30
2018-12-23T16:03:11.562Z,85.69
2018-12-23T16:05:40.150Z,86.15
2018-12-23T16:08:08.875Z,86.69
2018-12-23T16:10:36.995Z,86.68
2018-12-23T16:13:05.047Z,85.80
2018-12-23T16:15:33.899Z,86.25
2018-12-23T16:18:02.003Z,86.33
2018-12-23T16:20:30.277Z,86.08
2018-12-23T16:22:58.459Z,85.47
2018-12-23T16:25:26.539Z,85.58
2018-12-23T16:27:55.665Z,86.61
2018-12-23T16:30:24.204Z,85.62
2018-12-23T16:32:52.413Z,86.31
2018-12-23T16:35:20.478Z,85.79
2018-12-23T16:37:48.350Z,86.14
2018-12-23T16:40:17.314Z,86.49
2018-12-23T16:42:45.429Z,86.30
2018-12-23T16:45:13.283Z,86.33
2018-12-23T16:47:41.822Z,85.91
2018-12-23T16:50:09.866Z,85.79
2018-12-23T16:52:38.249Z,85.88
2018-12-23T16:55:06.717Z,85.87
2018-12-23T16:57:34.637Z,85.54
2018-12-23T17:00:03.405Z,86.05
2018-12-23T17:02:31.564Z,86.13
2018-12-23T17:04:59.594Z,85.97
2018-12-23T17:07:27.886Z,86.32
2018-12-23T17:09:55.948Z,86.27
2018-12-23T17:12:23.950Z,86.05
2018-12-23T17:14:51.978Z,86.00
2018-12-23T17:17:22.470Z,85.97
2018-12-23T17:19:51.198Z,86.71
2018-12-23T17:22:21.586Z,85.85
2018-12-23T17:24:49.823Z,85.77
2018-12-23T17:27:18.557Z,85.65
2018-12-23T17:29:46.719Z,86.66
2018-12-23T17:32:14.749Z,85.75
2018-12-23T17:34:43.376Z,86.57
2018-12-23T17:37:11.985Z,86.08
2018-12-23T17:39:40.103Z,86.61
2018-12-23T17:42:08.978Z,86.48
2018-12-23T17:44:36.823Z,86.38
2018-12-23T17:47:05.433Z,86.25
2018-12-23T17:49:33.892Z,86.58
2018-12-23T17:52:01.825Z,86.69
2018-12-23T17:54:30.103Z,87.38
2018-12-23T17:56:58.048Z,87.22
2018-12-23T17:59:26.618Z,87.58
2018-12-23T18:01:55.950Z,87.72
2018-12-23T18:04:23.745Z,87.79
2018-12-23T18:06:52.124Z,87.65
2018-12-23T18:09:20.457Z,87.04
2018-12-23T18:11:48.285Z,87.59
2018-12-23T18:14:16.642Z,87.65
2018-12-23T18:16:44.580Z,87.53
2018-12-23T18:19:13.634Z,88.52
2018-12-23T18:21:42.031Z,87.38
2018-12-23T18:24:10.666Z,86.97
2018-12-23T18:26:45.096Z,87.61
2018-12-23T18:29:10.138Z,88.43
2018-12-23T18:31:38.016Z,88.59
2018-12-23T18:34:06.545Z,88.83
2018-12-23T18:36:34.486Z,88.92
2018-12-23T18:39:04.997Z,89.13
2018-12-23T18:41:34.593Z,88.74
2018-12-23T18:44:02.394Z,88.87
2018-12-23T18:46:30.773Z,87.86
2018-12-23T18:48:59.009Z,87.76
2018-12-23T18:51:27.539Z,87.07
2018-12-23T18:53:56.460Z,86.81
2018-12-23T18:56:42.325Z,87.96
2018-12-23T18:59:11.800Z,87.22
2018-12-23T19:01:47.208Z,88.70
2018-12-23T19:04:15.304Z,87.91
2018-12-23T19:06:43.579Z,87.85
2018-12-23T19:09:26.240Z,87.89
2018-12-23T19:12:57.949Z,87.44
2018-12-23T19:16:16.130Z,87.39
2018-12-23T19:20:05.620Z,87.19
2018-12-23T19:23:36.998Z,87.71
2018-12-23T19:27:02.221Z,86.90
2018-12-23T19:30:18.583Z,86.93
2018-12-23T19:33:30.072Z,87.27
2018-12-23T19:37:13.311Z,87.42
2018-12-23T19:40:50.468Z,87.36
2018-12-23T19:44:24.084Z,87.49
2018-12-23T19:48:00.887Z,86.85
2018-12-23T19:51:35.017Z,86.86
2018-12-23T19:55:31.079Z,87.11
2018-12-23T19:59:11.840Z,87.69
2018-12-23T20:02:43.156Z,88.12
2018-12-23T20:06:20.461Z,88.30
2018-12-23T20:09:19.597Z,87.79
2018-12-23T20:12:46.263Z,87.62
2018-12-23T20:16:14.119Z,87.96
2018-12-23T20:19:52.117Z,87.72
2018-12-23T20:23:04.690Z,88.33
2018-12-23T20:26:05.174Z,88.15
2018-12-23T20:30:01.412Z,87.89
2018-12-23T20:33:25.782Z,88.01
2018-12-23T20:36:37.898Z,88.20
2018-12-23T20:39:51.632Z,88.17
2018-12-23T20:42:58.926Z,88.25
2018-12-23T20:46:15.782Z,88.48
2018-12-23T20:50:05.683Z,88.87
2018-12-23T20:53:42.197Z,88.95
2018-12-23T20:57:14.319Z,89.48
2018-12-23T21:00:49.159Z,89.09
2018-12-23T21:04:26.588Z,89.60
2018-12-23T21:07:48.727Z,89.17
2018-12-23T21:11:15.977Z,89.17
2018-12-23T21:14:20.669Z,88.32
2018-12-23T21:17:55.574Z,88.87
2018-12-23T21:21:26.017Z,88.88
2018-12-23T21:24:47.557Z,88.62
2018-12-23T21:28:23.165Z,89.16
2018-12-23T21:31:50.630Z,88.92
2018-12-23T21:35:18.936Z,88.79
2018-12-23T21:38:51.792Z,89.25
2018-12-23T21:42:13.509Z,88.84
2018-12-23T21:46:09.465Z,88.55
2018-12-23T21:49:40.566Z,89.10
2018-12-23T21:53:16.191Z,88.90
2018-12-23T21:56:41.506Z,89.04
2018-12-23T21:59:49.094Z,89.04
2018-12-23T22:03:04.738Z,89.15
2018-12-23T22:06:32.809Z,88.83
2018-12-23T22:09:47.469Z,88.68
2018-12-23T22:13:10.650Z,88.65
2018-12-23T22:15:38.443Z,88.52
2018-12-23T22:18:06.955Z,88.74
2018-12-23T22:20:35.523Z,88.70
2018-12-23T22:23:04.034Z,88.46
2018-12-23T22:25:32.286Z,88.37
2018-12-23T22:28:00.241Z,88.60
2018-12-23T22:30:28.605Z,88.71
2018-12-23T22:32:56.766Z,88.55
2018-12-23T22:35:24.583Z,88.74
2018-12-23T22:37:52.946Z,88.60
2018-12-23T22:40:22.183Z,88.37
2018-12-23T22:42:50.932Z,88.71
2018-12-23T22:45:19.077Z,88.66
2018-12-23T22:47:47.444Z,88.96
2018-12-23T22:50:15.361Z,88.98
2018-12-23T22:52:44.062Z,88.66
2018-12-23T22:55:12.536Z,88.71
2018-12-23T22:57:40.954Z,88.64
2018-12-23T23:00:09.089Z,88.65
2018-12-23T23:02:38.150Z,88.63
2018-12-23T23:05:06.687Z,88.69
2018-12-23T23:07:34.669Z,88.82
2018-12-23T23:10:02.973Z,89.14
2018-12-23T23:12:30.672Z,89.43
2018-12-23T23:14:59.021Z,88.96
2018-12-23T23:17:26.738Z,88.91
2018-12-23T23:19:55.368Z,89.33
2018-12-23T23:22:23.421Z,89.44
2018-12-23T23:24:51.501Z,89.46
2018-12-23T23:27:19.482Z,89.77
2018-12-23T23:29:47.631Z,89.73
2018-12-23T23:32:15.995Z,89.81
2018-12-23T23:34:43.978Z,90.06
2018-12-23T23:37:11.797Z,90.32
2018-12-23T23:39:39.934Z,90.68
2018-12-23T23:42:08.575Z,90.94
2018-12-23T23:44:37.723Z,90.50
2018-12-23T23:47:05.693Z,90.36
2018-12-23T23:49:34.350Z,89.94
2018-12-23T23:52:02.964Z,89.85
2018-12-23T23:54:31.453Z,89.72
2018-12-23T23:57:00.248Z,89.55
2018-12-23T23:59:28.791Z,89.62
